Time;durP1;ratioP1;P1;durP2;ratioP2;P2;SDS_P1;SDS_P2;PMS_P1;PMS_P2;Temp;Humidity;BMP_temperature;BMP_pressure;BME280_temperature;BME280_humidity;BME280_pressure;Samples;Min_cycle;Max_cycle;Signal;HPM_P1;HPM_P2
2023/06/23 00:00:29;;;;;;;4.70;2.97;;;;;;;18.63;97.99;97278.28;4997008;28;20089;-62
2023/06/23 00:02:56;;;;;;;4.28;2.83;;;;;;;18.65;98.32;97284.28;4995429;28;20092;-63
2023/06/23 00:05:24;;;;;;;4.93;3.10;;;;;;;18.64;98.49;97285.41;4995896;28;20042;-63
2023/06/23 00:07:51;;;;;;;5.60;2.88;;;;;;;18.63;98.92;97296.66;4999024;28;20038;-63
2023/06/23 00:10:17;;;;;;;4.40;2.45;;;;;;;18.59;98.06;97302.78;4995309;28;20116;-63
2023/06/23 00:12:44;;;;;;;5.55;3.13;;;;;;;18.66;98.03;97304.28;4994853;28;20505;-64
2023/06/23 00:15:14;;;;;;;5.30;2.50;;;;;;;18.62;97.80;97317.81;4990713;28;20046;-64
2023/06/23 00:17:44;;;;;;;5.07;2.78;;;;;;;18.60;98.26;97317.28;4988842;28;20050;-63
2023/06/23 00:20:14;;;;;;;4.03;2.88;;;;;;;18.50;98.30;97323.78;4989258;28;20053;-63
2023/06/23 00:22:43;;;;;;;4.13;2.22;;;;;;;18.53;98.16;97319.63;4988223;28;20541;-63
2023/06/23 00:25:12;;;;;;;4.10;2.63;;;;;;;18.42;99.11;97325.31;4981707;28;20108;-63
2023/06/23 00:27:41;;;;;;;3.95;2.47;;;;;;;18.31;99.97;97340.34;5002032;28;20042;-63
2023/06/23 00:30:11;;;;;;;3.90;2.55;;;;;;;18.37;99.78;97343.78;4972281;28;20296;-62
2023/06/23 00:32:39;;;;;;;4.53;2.67;;;;;;;18.31;100.00;97341.16;4990418;28;20053;-64
2023/06/23 00:35:08;;;;;;;4.78;2.97;;;;;;;18.33;100.00;97355.34;4995969;28;20034;-64
2023/06/23 00:37:38;;;;;;;4.68;2.50;;;;;;;18.35;100.00;97360.53;4977882;28;20045;-63
2023/06/23 00:40:12;;;;;;;3.53;2.38;;;;;;;18.31;100.00;97359.53;4995711;28;20485;-64
2023/06/23 00:42:46;;;;;;;4.47;2.78;;;;;;;18.24;100.00;97359.91;4995244;28;20042;-64
2023/06/23 00:45:13;;;;;;;5.07;2.58;;;;;;;18.30;100.00;97355.16;5004827;28;20529;-63
2023/06/23 00:47:42;;;;;;;4.75;2.53;;;;;;;18.03;100.00;97360.25;4987309;28;21200;-63
2023/06/23 00:50:13;;;;;;;5.53;3.00;;;;;;;17.91;100.00;97352.53;5005772;28;20049;-63
2023/06/23 00:52:40;;;;;;;5.35;3.10;;;;;;;17.96;100.00;97356.28;5005245;28;20041;-63
2023/06/23 00:55:07;;;;;;;4.18;2.85;;;;;;;17.83;100.00;97353.22;5000805;28;20076;-64
2023/06/23 00:57:35;;;;;;;6.38;3.20;;;;;;;17.45;100.00;97372.44;4993789;28;20045;-63
2023/06/23 01:00:05;;;;;;;5.75;3.45;;;;;;;17.21;100.00;97384.31;4995885;28;20034;-63
2023/06/23 01:02:31;;;;;;;4.75;3.22;;;;;;;17.07;100.00;97401.44;4999900;28;20052;-63
2023/06/23 01:05:00;;;;;;;6.45;3.25;;;;;;;17.05;100.00;97421.97;5001272;28;20050;-64
2023/06/23 01:07:35;;;;;;;6.90;3.70;;;;;;;16.87;100.00;97424.34;4980899;28;20045;-63
2023/06/23 01:10:14;;;;;;;4.78;3.25;;;;;;;16.77;100.00;97431.56;5002023;28;20057;-63
2023/06/23 01:12:52;;;;;;;5.40;3.72;;;;;;;16.54;100.00;97444.13;4994911;28;20477;-63
2023/06/23 01:15:41;;;;;;;6.05;4.13;;;;;;;16.55;100.00;97439.47;5000500;28;20042;-63
2023/06/23 01:18:13;;;;;;;8.52;4.10;;;;;;;16.46;100.00;97434.66;4994634;28;20122;-63
2023/06/23 01:20:44;;;;;;;7.38;4.28;;;;;;;16.40;100.00;97435.00;4994876;28;20054;-63
2023/06/23 01:23:35;;;;;;;7.75;4.07;;;;;;;16.40;100.00;97435.00;5003678;28;20084;-63
2023/06/23 01:26:06;;;;;;;6.53;4.43;;;;;;;16.44;100.00;97449.72;4995356;28;20121;-63
2023/06/23 01:28:50;;;;;;;8.25;4.68;;;;;;;16.49;100.00;97439.53;4993411;28;20046;-63
2023/06/23 01:31:35;;;;;;;5.97;4.05;;;;;;;16.36;100.00;97432.81;4987229;28;20074;-64
2023/06/23 01:34:08;;;;;;;5.60;3.88;;;;;;;16.25;100.00;97450.41;4995588;28;20042;-63
2023/06/23 01:36:40;;;;;;;5.57;3.80;;;;;;;16.18;100.00;97458.16;4978139;28;20133;-63
2023/06/23 01:39:11;;;;;;;7.30;3.45;;;;;;;15.91;100.00;97443.84;4981652;28;20043;-63
2023/06/23 01:41:44;;;;;;;6.30;4.07;;;;;;;15.95;100.00;97452.31;4995056;28;20066;-63
2023/06/23 01:44:14;;;;;;;5.95;3.10;;;;;;;15.91;100.00;97446.56;4978006;28;20052;-64
2023/06/23 01:46:46;;;;;;;5.63;2.78;;;;;;;15.78;100.00;97455.41;5002097;28;20125;-63
2023/06/23 01:49:17;;;;;;;5.18;3.10;;;;;;;15.70;100.00;97467.75;4984367;28;20245;-63
2023/06/23 01:51:46;;;;;;;4.25;2.45;;;;;;;15.62;100.00;97476.53;4976554;28;20054;-62
2023/06/23 01:54:16;;;;;;;4.10;2.30;;;;;;;15.52;100.00;97464.56;4992083;28;20061;-64
2023/06/23 01:56:44;;;;;;;4.05;2.08;;;;;;;15.61;100.00;97475.72;4989131;28;20265;-64
2023/06/23 01:59:11;;;;;;;4.30;2.25;;;;;;;15.71;100.00;97459.25;4981870;28;20073;-63
2023/06/23 02:01:42;;;;;;;4.07;2.45;;;;;;;15.69;100.00;97456.03;4975064;28;20480;-63
2023/06/23 02:04:10;;;;;;;4.18;2.60;;;;;;;15.84;100.00;97452.38;4971954;28;20042;-63
2023/06/23 02:06:42;;;;;;;5.18;2.88;;;;;;;15.81;100.00;97463.06;4976201;28;20049;-63
2023/06/23 02:09:14;;;;;;;6.35;3.78;;;;;;;15.66;100.00;97466.69;4978116;28;20042;-63
2023/06/23 02:11:42;;;;;;;5.53;3.58;;;;;;;15.63;100.00;97473.53;4992234;28;20421;-63
2023/06/23 02:14:11;;;;;;;7.70;4.95;;;;;;;15.55;100.00;97476.88;4998255;28;20038;-63
2023/06/23 02:16:39;;;;;;;7.70;4.82;;;;;;;15.51;100.00;97473.06;4995166;28;20042;-64
2023/06/23 02:19:08;;;;;;;7.70;4.90;;;;;;;15.60;100.00;97472.16;5003798;28;20041;-64
2023/06/23 02:21:35;;;;;;;9.32;6.03;;;;;;;15.58;100.00;97482.56;5001853;28;20038;-63
2023/06/23 02:24:05;;;;;;;9.65;5.85;;;;;;;15.55;100.00;97479.59;4999968;28;20050;-64
2023/06/23 02:26:37;;;;;;;10.75;6.75;;;;;;;15.62;100.00;97473.81;4998579;28;20121;-64
2023/06/23 02:29:06;;;;;;;10.65;7.43;;;;;;;15.62;100.00;97476.53;4982006;28;20310;-63
2023/06/23 02:31:33;;;;;;;11.25;8.23;;;;;;;15.55;100.00;97468.69;4976767;28;20513;-63
2023/06/23 02:34:01;;;;;;;10.68;8.07;;;;;;;15.62;100.00;97462.91;5001213;28;20038;-63
2023/06/23 02:36:35;;;;;;;13.23;9.00;;;;;;;15.68;100.00;97472.69;5000461;28;20050;-63
2023/06/23 02:39:06;;;;;;;11.75;8.52;;;;;;;15.69;100.00;97456.03;4999010;28;20046;-64
2023/06/23 02:41:35;;;;;;;12.73;10.10;;;;;;;15.71;100.00;97470.19;4999271;28;20052;-63
2023/06/23 02:44:09;;;;;;;12.70;9.32;;;;;;;15.62;100.00;97466.44;4997365;28;20054;-64
2023/06/23 02:46:39;;;;;;;13.30;9.65;;;;;;;15.69;100.00;97471.56;4997590;28;20042;-64
2023/06/23 02:49:11;;;;;;;13.50;11.10;;;;;;;15.64;100.00;97477.06;5000453;28;20049;-64
2023/06/23 02:51:40;;;;;;;23.15;11.82;;;;;;;15.61;100.00;97475.72;4995746;28;20033;-63
2023/06/23 02:54:11;;;;;;;14.27;10.60;;;;;;;15.60;100.00;97466.72;4976470;28;20047;-62
2023/06/23 02:56:42;;;;;;;15.38;11.05;;;;;;;15.68;100.00;97476.22;4974777;28;20097;-63
2023/06/23 02:59:15;;;;;;;15.68;11.13;;;;;;;15.76;100.00;97484.91;4976943;28;20073;-63
2023/06/23 03:01:46;;;;;;;14.10;10.57;;;;;;;15.73;100.00;97481.66;4995308;28;20035;-63
2023/06/23 03:04:13;;;;;;;15.30;10.88;;;;;;;15.77;100.00;97481.09;4979891;28;20058;-64
2023/06/23 03:06:40;;;;;;;14.38;10.95;;;;;;;15.78;100.00;97482.72;4997278;28;20668;-64
2023/06/23 03:09:10;;;;;;;14.30;11.10;;;;;;;15.76;100.00;97483.00;4995869;28;20517;-63
2023/06/23 03:11:37;;;;;;;13.27;10.68;;;;;;;15.74;100.00;97488.72;4980527;28;20058;-64
2023/06/23 03:14:06;;;;;;;13.38;11.02;;;;;;;15.79;100.00;97487.91;4998560;28;20038;-64
2023/06/23 03:16:46;;;;;;;15.18;10.50;;;;;;;15.90;100.00;97485.09;4996061;28;20092;-63
2023/06/23 03:19:44;;;;;;;15.07;10.48;;;;;;;15.80;100.00;97489.53;4998580;28;20061;-64
2023/06/23 03:22:18;;;;;;;14.05;10.98;;;;;;;15.90;100.00;97498.72;4982050;28;20132;-64
2023/06/23 03:24:52;;;;;;;13.80;10.25;;;;;;;15.88;100.00;97499.00;4991810;28;20056;-64
2023/06/23 03:27:21;;;;;;;14.95;11.35;;;;;;;15.99;100.00;97500.63;5001212;28;20045;-63
2023/06/23 03:29:59;;;;;;;12.50;9.95;;;;;;;15.98;100.00;97507.19;4986742;28;20433;-63
2023/06/23 03:32:31;;;;;;;15.52;11.07;;;;;;;15.94;100.00;97514.31;4997780;28;20096;-64
2023/06/23 03:35:06;;;;;;;15.80;11.63;;;;;;;15.92;100.00;97524.66;4986658;28;20034;-63
2023/06/23 03:37:38;;;;;;;14.10;10.90;;;;;;;15.97;100.00;97524.69;5006932;28;20092;-64
2023/06/23 03:40:11;;;;;;;14.15;10.57;;;;;;;15.93;100.00;97528.22;5003857;28;20045;-62
2023/06/23 03:43:27;;;;;;;15.30;11.10;;;;;;;16.06;100.00;97527.59;5000099;28;20053;-63
2023/06/23 03:45:58;;;;;;;15.25;10.95;;;;;;;16.03;100.00;97516.44;4999096;28;20564;-64
2023/06/23 03:48:28;;;;;;;15.38;12.40;;;;;;;16.01;100.00;97526.81;5000920;28;20552;-63
2023/06/23 03:50:57;;;;;;;16.55;12.63;;;;;;;15.99;100.00;97538.03;5006041;28;20572;-63
2023/06/23 03:53:26;;;;;;;16.95;12.80;;;;;;;16.07;100.00;97531.97;5005638;28;20559;-63
2023/06/23 03:55:55;;;;;;;15.90;12.63;;;;;;;16.04;100.00;97532.53;5006156;28;20053;-63
2023/06/23 03:58:23;;;;;;;17.02;13.25;;;;;;;15.97;100.00;97534.78;4997270;28;20038;-64
2023/06/23 04:00:52;;;;;;;23.25;14.45;;;;;;;15.96;100.00;97547.59;5004407;28;20046;-64
2023/06/23 04:03:19;;;;;;;15.75;13.10;;;;;;;15.96;100.00;97546.81;5001383;28;20045;-63
2023/06/23 04:05:48;;;;;;;16.55;13.18;;;;;;;16.08;100.00;97549.16;5004618;28;20045;-64
2023/06/23 04:08:18;;;;;;;16.42;13.15;;;;;;;16.17;100.00;97552.94;5006560;28;20048;-64
2023/06/23 04:10:46;;;;;;;17.73;13.73;;;;;;;16.27;100.00;97551.22;5002970;28;20057;-63
2023/06/23 04:13:14;;;;;;;17.80;13.63;;;;;;;16.18;100.00;97549.09;5005838;28;20045;-64
2023/06/23 04:15:43;;;;;;;18.10;13.48;;;;;;;16.16;100.00;97554.03;5006307;28;20748;-63
2023/06/23 04:18:11;;;;;;;20.02;15.30;;;;;;;16.10;100.00;97555.16;5003865;28;20401;-64
2023/06/23 04:20:40;;;;;;;20.85;15.90;;;;;;;16.09;100.00;97567.19;5003754;28;20056;-63
2023/06/23 04:23:07;;;;;;;17.98;15.93;;;;;;;16.14;100.00;97564.41;5002068;28;20042;-64
2023/06/23 04:25:35;;;;;;;21.63;16.13;;;;;;;16.17;100.00;97580.25;5004624;28;20044;-63
2023/06/23 04:28:04;;;;;;;21.33;15.70;;;;;;;16.32;100.00;97567.56;5002523;28;20038;-64
2023/06/23 04:30:34;;;;;;;20.00;15.43;;;;;;;16.34;100.00;97574.41;5005742;28;20107;-63
2023/06/23 04:33:01;;;;;;;21.98;15.85;;;;;;;16.41;100.00;97584.19;5003642;28;20125;-63
2023/06/23 04:35:28;;;;;;;21.33;16.70;;;;;;;16.36;100.00;97594.03;5005891;28;20038;-63
2023/06/23 04:38:06;;;;;;;20.77;17.55;;;;;;;16.40;100.00;97605.22;5001640;28;20156;-64
2023/06/23 04:40:41;;;;;;;21.67;18.00;;;;;;;16.44;100.00;97591.81;5003198;28;20454;-64
2023/06/23 04:43:13;;;;;;;23.75;18.48;;;;;;;16.52;100.00;97613.06;5003690;28;20042;-63
2023/06/23 04:45:50;;;;;;;28.48;18.23;;;;;;;16.60;100.00;97603.44;5003067;28;20046;-63
2023/06/23 04:48:22;;;;;;;25.92;18.33;;;;;;;16.58;100.00;97616.59;5004896;28;20076;-63
2023/06/23 04:50:52;;;;;;;24.83;19.10;;;;;;;16.55;100.00;97617.94;5005312;28;20041;-63
2023/06/23 04:53:21;;;;;;;29.20;22.70;;;;;;;16.56;100.00;97622.34;5005186;28;20046;-63
2023/06/23 04:55:53;;;;;;;26.23;20.20;;;;;;;16.70;100.00;97625.19;5005400;28;20045;-63
2023/06/23 04:58:23;;;;;;;27.27;20.70;;;;;;;16.69;100.00;97625.50;4993124;28;20041;-63
2023/06/23 05:00:51;;;;;;;27.45;21.30;;;;;;;16.75;100.00;97629.81;5000554;28;20128;-63
2023/06/23 05:03:20;;;;;;;29.10;20.83;;;;;;;16.73;100.00;97645.72;5000904;28;20100;-63
2023/06/23 05:05:52;;;;;;;30.73;21.25;;;;;;;16.91;100.00;97641.44;5002485;28;20057;-64
2023/06/23 05:08:21;;;;;;;28.90;21.55;;;;;;;16.85;100.00;97643.41;5005648;28;20038;-63
2023/06/23 05:10:48;;;;;;;29.67;23.00;;;;;;;16.84;100.00;97655.44;5004665;28;20046;-63
2023/06/23 05:13:17;;;;;;;29.17;23.17;;;;;;;16.88;100.00;97647.50;5004948;28;20594;-63
2023/06/23 05:15:47;;;;;;;32.83;24.95;;;;;;;16.90;100.00;97656.22;5005177;28;20096;-63
2023/06/23 05:18:17;;;;;;;36.58;24.40;;;;;;;16.89;100.00;97649.13;5005285;28;20113;-63
2023/06/23 05:20:46;;;;;;;34.50;25.33;;;;;;;16.98;100.00;97641.94;5002224;28;20100;-63
2023/06/23 05:23:15;;;;;;;31.63;23.55;;;;;;;17.15;100.00;97647.00;5003484;28;20037;-63
2023/06/23 05:25:45;;;;;;;31.55;22.73;;;;;;;17.22;100.00;97641.22;5003829;28;20547;-63
2023/06/23 05:28:14;;;;;;;28.48;22.80;;;;;;;17.22;100.00;97643.94;5003785;28;20062;-63
2023/06/23 05:30:43;;;;;;;30.48;23.95;;;;;;;17.21;100.00;97636.03;5002341;28;20508;-63
2023/06/23 05:33:11;;;;;;;28.40;21.67;;;;;;;17.29;99.42;97641.66;5002073;28;20038;-63
2023/06/23 05:35:39;;;;;;;33.45;24.60;;;;;;;17.13;100.00;97651.94;5005221;28;20053;-64
2023/06/23 05:38:08;;;;;;;34.83;23.33;;;;;;;17.03;99.62;97660.22;5000802;28;20037;-63
2023/06/23 05:40:35;;;;;;;32.70;23.50;;;;;;;17.19;99.64;97652.72;5004208;28;20548;-62
2023/06/23 05:43:02;;;;;;;34.25;23.77;;;;;;;17.14;100.00;97652.78;4997094;28;20407;-63
2023/06/23 05:45:28;;;;;;;34.50;26.20;;;;;;;16.99;100.00;97659.97;5005088;28;20374;-61
2023/06/23 05:48:20;;;;;;;33.35;23.75;;;;;;;17.16;100.00;97658.75;5005161;28;20038;-63
2023/06/23 05:50:49;;;;;;;35.55;25.40;;;;;;;17.21;99.57;97664.19;5001335;28;20068;-63
2023/06/23 05:53:18;;;;;;;33.65;24.45;;;;;;;17.22;99.81;97665.84;5002125;28;20070;-63
2023/06/23 05:56:07;;;;;;;31.65;24.05;;;;;;;17.20;99.30;97667.19;5004528;28;20045;-63
2023/06/23 05:58:40;;;;;;;32.10;24.02;;;;;;;17.11;99.83;97667.03;4999551;28;20044;-63
2023/06/23 06:01:12;;;;;;;37.58;24.80;;;;;;;17.07;100.00;97671.44;5008346;28;20037;-64
2023/06/23 06:03:59;;;;;;;35.10;26.23;;;;;;;16.88;100.00;97674.84;5008173;28;20046;-63
2023/06/23 06:06:28;;;;;;;36.15;24.65;;;;;;;16.95;99.99;97680.00;5008763;28;20545;-63
2023/06/23 06:08:57;;;;;;;29.67;24.02;;;;;;;16.85;100.00;97684.41;5008655;28;20493;-63
2023/06/23 06:11:26;;;;;;;35.60;26.52;;;;;;;16.74;100.00;97697.34;5006223;28;20766;-63
2023/06/23 06:13:56;;;;;;;36.53;26.45;;;;;;;16.66;100.00;97697.97;5004411;28;20136;-64
2023/06/23 06:16:24;;;;;;;38.60;27.73;;;;;;;16.68;100.00;97695.78;4997599;28;20152;-63
2023/06/23 06:18:53;;;;;;;38.53;26.25;;;;;;;16.80;100.00;97700.06;5000097;28;20042;-63
2023/06/23 06:21:21;;;;;;;35.85;24.83;;;;;;;16.83;100.00;97699.47;4996503;28;20045;-64
2023/06/23 06:23:51;;;;;;;39.35;28.05;;;;;;;16.80;100.00;97702.81;4991238;28;20046;-63
2023/06/23 06:26:19;;;;;;;35.92;24.23;;;;;;;16.73;100.00;97705.88;4989767;28;20054;-64
2023/06/23 06:28:50;;;;;;;38.25;24.95;;;;;;;16.75;100.00;97703.66;5007995;28;20046;-63
2023/06/23 06:31:18;;;;;;;35.58;25.73;;;;;;;16.74;100.00;97707.50;5008364;28;20057;-63
2023/06/23 06:33:48;;;;;;;31.60;23.55;;;;;;;16.79;100.00;97704.72;5007348;28;20654;-63
2023/06/23 06:36:16;;;;;;;31.08;23.35;;;;;;;17.08;100.00;97705.88;5007572;28;20046;-62
2023/06/23 06:38:44;;;;;;;34.55;23.85;;;;;;;17.28;98.30;97710.34;5008097;28;20048;-63
2023/06/23 06:41:13;;;;;;;29.63;22.17;;;;;;;17.64;96.82;97711.94;5004943;28;20038;-64
2023/06/23 06:43:40;;;;;;;30.05;21.63;;;;;;;17.85;95.73;97719.94;4989759;28;20569;-63
2023/06/23 06:46:09;;;;;;;30.75;22.45;;;;;;;17.92;92.99;97734.88;4990036;28;20421;-64
2023/06/23 06:48:37;;;;;;;29.60;21.67;;;;;;;17.99;93.30;97725.53;5006325;28;20057;-63
2023/06/23 06:51:05;;;;;;;28.55;20.60;;;;;;;18.10;91.49;97737.22;5006601;28;20129;-63
2023/06/23 06:53:32;;;;;;;30.48;22.58;;;;;;;17.98;92.78;97740.34;5003071;28;20141;-63
2023/06/23 06:55:59;;;;;;;26.83;19.80;;;;;;;18.16;91.41;97742.31;5004740;28;20110;-63
2023/06/23 06:58:26;;;;;;;26.45;19.08;;;;;;;18.05;89.75;97744.34;5007499;28;20068;-62
2023/06/23 07:00:53;;;;;;;27.77;20.08;;;;;;;18.02;91.00;97744.91;5007451;28;20064;-63
2023/06/23 07:03:21;;;;;;;28.30;21.33;;;;;;;17.93;91.50;97743.94;5007083;28;20069;-63
2023/06/23 07:05:48;;;;;;;30.95;22.13;;;;;;;17.86;91.65;97751.69;5007388;28;20505;-63
2023/06/23 07:08:14;;;;;;;27.90;20.42;;;;;;;17.77;90.81;97765.22;5006163;28;20133;-63
2023/06/23 07:10:41;;;;;;;25.55;19.67;;;;;;;17.78;89.87;97761.34;5004270;28;20050;-63
2023/06/23 07:13:07;;;;;;;25.95;19.83;;;;;;;17.60;91.93;97768.38;5003993;28;20079;-63
2023/06/23 07:15:34;;;;;;;26.52;20.15;;;;;;;17.62;91.91;97766.97;5005796;28;20042;-63
2023/06/23 07:18:00;;;;;;;28.05;19.85;;;;;;;17.81;92.02;97777.22;5006887;28;20030;-63
2023/06/23 07:20:27;;;;;;;30.48;19.70;;;;;;;17.76;90.79;97764.38;5007014;28;20037;-61
2023/06/23 07:22:54;;;;;;;24.70;18.83;;;;;;;17.71;90.86;97775.38;5006678;28;20052;-63
2023/06/23 07:25:20;;;;;;;28.17;19.02;;;;;;;17.95;91.60;97777.34;5007429;28;20069;-63
2023/06/23 07:27:48;;;;;;;25.23;18.23;;;;;;;18.11;88.46;97785.41;5003462;28;20056;-63
2023/06/23 07:30:16;;;;;;;24.17;17.90;;;;;;;18.15;88.72;97783.72;5004668;28;20523;-63
2023/06/23 07:32:45;;;;;;;24.75;17.42;;;;;;;18.09;89.05;97798.59;5002593;28;20138;-62
2023/06/23 07:35:12;;;;;;;24.25;16.90;;;;;;;18.16;89.87;97797.13;5002813;28;20058;-62
2023/06/23 07:37:39;;;;;;;23.40;16.88;;;;;;;18.20;88.56;97789.97;5007050;28;20042;-63
2023/06/23 07:40:06;;;;;;;24.38;17.77;;;;;;;18.25;85.89;97808.28;5001088;28;20038;-65
2023/06/23 07:42:33;;;;;;;21.13;16.83;;;;;;;17.90;87.87;97802.03;5006572;28;20045;-64
2023/06/23 07:45:00;;;;;;;21.73;15.75;;;;;;;18.10;86.06;97805.72;5006693;28;20056;-63
2023/06/23 07:47:27;;;;;;;22.38;16.27;;;;;;;18.18;87.00;97811.34;5007131;28;20614;-64
2023/06/23 07:49:54;;;;;;;24.33;17.33;;;;;;;18.27;85.55;97818.94;5006923;28;20113;-63
2023/06/23 07:52:20;;;;;;;21.20;15.38;;;;;;;18.22;85.86;97819.81;5004589;28;20076;-63
2023/06/23 07:54:47;;;;;;;21.00;15.23;;;;;;;18.11;85.65;97827.34;5004438;28;20065;-64
2023/06/23 07:57:13;;;;;;;22.15;16.00;;;;;;;18.16;85.96;97829.19;5004527;28;20112;-63
2023/06/23 07:59:40;;;;;;;18.98;14.43;;;;;;;18.37;85.01;97842.66;5006741;28;20042;-63
2023/06/23 08:02:06;;;;;;;21.27;15.20;;;;;;;18.29;83.45;97841.41;5005671;28;20107;-64
2023/06/23 08:04:34;;;;;;;20.45;15.43;;;;;;;18.15;83.57;97844.00;5004532;28;20417;-63
2023/06/23 08:07:01;;;;;;;16.90;13.70;;;;;;;18.62;82.59;97849.78;5001991;28;20053;-63
2023/06/23 08:09:27;;;;;;;17.90;13.98;;;;;;;18.88;81.96;97856.88;5006410;28;20436;-63
2023/06/23 08:11:54;;;;;;;18.15;14.18;;;;;;;18.65;82.59;97851.94;5005792;28;20068;-63
2023/06/23 08:14:20;;;;;;;18.90;14.30;;;;;;;18.78;82.07;97857.81;5006120;28;20037;-63
2023/06/23 08:16:47;;;;;;;18.92;14.10;;;;;;;18.72;81.60;97854.31;5006024;28;20037;-62
2023/06/23 08:19:21;;;;;;;21.08;14.38;;;;;;;18.90;81.14;97871.91;5006200;28;20038;-63
2023/06/23 08:21:54;;;;;;;16.85;13.40;;;;;;;18.90;80.48;97860.16;5004710;28;20046;-63
2023/06/23 08:24:20;;;;;;;19.40;13.45;;;;;;;18.77;80.90;97870.72;5003544;28;20049;-64
2023/06/23 08:26:47;;;;;;;17.75;13.60;;;;;;;18.66;81.95;97866.47;5005040;28;20073;-63
2023/06/23 08:29:14;;;;;;;16.35;11.70;;;;;;;18.91;80.45;97880.97;5001900;28;20037;-63
2023/06/23 08:31:40;;;;;;;17.38;12.15;;;;;;;19.04;79.02;97879.41;5005816;28;20417;-62
2023/06/23 08:34:07;;;;;;;17.23;12.60;;;;;;;19.35;77.66;97873.53;5005400;28;20046;-63
2023/06/23 08:36:33;;;;;;;16.05;13.07;;;;;;;19.62;77.99;97874.75;5006257;28;20117;-64
2023/06/23 08:39:00;;;;;;;16.17;12.07;;;;;;;19.66;78.25;97880.47;5005919;28;20038;-63
2023/06/23 08:41:29;;;;;;;16.60;12.25;;;;;;;19.84;76.58;97876.88;5005828;28;20050;-63
2023/06/23 08:44:00;;;;;;;21.90;13.27;;;;;;;19.80;75.77;97878.59;5003951;28;20044;-63
2023/06/23 08:46:30;;;;;;;15.38;11.50;;;;;;;19.90;75.08;97869.34;4999051;28;20108;-62
2023/06/23 08:48:57;;;;;;;14.30;11.35;;;;;;;19.63;76.76;97871.72;5002130;28;20038;-63
2023/06/23 08:51:24;;;;;;;16.23;13.10;;;;;;;19.54;76.54;97878.19;5005664;28;20038;-63
2023/06/23 08:53:51;;;;;;;17.63;12.55;;;;;;;19.62;76.39;97880.25;5005071;28;20681;-63
2023/06/23 08:56:20;;;;;;;16.38;11.82;;;;;;;19.80;74.94;97869.53;5004446;28;20049;-63
2023/06/23 08:58:47;;;;;;;14.88;11.30;;;;;;;19.85;74.84;97870.25;5005214;28;20053;-64
2023/06/23 09:01:13;;;;;;;13.63;10.85;;;;;;;19.97;73.88;97879.97;5001101;28;20556;-62
2023/06/23 09:03:40;;;;;;;14.30;11.25;;;;;;;20.12;72.74;97882.47;5000673;28;20054;-62
2023/06/23 09:06:07;;;;;;;15.90;11.45;;;;;;;20.25;72.55;97891.88;5003641;28;20053;-62
2023/06/23 09:08:34;;;;;;;14.57;10.65;;;;;;;20.22;71.98;97903.47;5005367;28;20065;-62
2023/06/23 09:11:00;;;;;;;16.25;11.85;;;;;;;19.99;72.80;97903.31;5005081;28;20116;-62
2023/06/23 09:13:33;;;;;;;16.27;11.48;;;;;;;20.06;72.10;97900.19;5004648;28;20626;-63
2023/06/23 09:16:00;;;;;;;15.95;11.38;;;;;;;20.49;72.14;97910.09;5002957;28;20052;-63
2023/06/23 09:18:38;;;;;;;18.50;11.07;;;;;;;20.49;71.46;97912.06;4996869;28;20516;-63
2023/06/23 09:21:05;;;;;;;16.13;9.80;;;;;;;20.68;70.77;97906.47;5003330;28;20038;-63
2023/06/23 09:23:33;;;;;;;13.32;10.10;;;;;;;20.59;68.30;97900.84;5004521;28;20500;-63
2023/06/23 09:26:03;;;;;;;11.35;8.88;;;;;;;20.51;69.94;97913.38;5003869;28;20037;-64
2023/06/23 09:28:31;;;;;;;11.73;8.87;;;;;;;20.64;69.34;97913.69;4999561;28;20038;-63
2023/06/23 09:31:07;;;;;;;13.07;9.88;;;;;;;20.37;69.78;97916.09;5001271;28;20042;-64
2023/06/23 09:33:33;;;;;;;13.35;9.32;;;;;;;20.49;66.88;97915.59;5000127;28;20042;-64
2023/06/23 09:36:04;;;;;;;10.40;8.63;;;;;;;20.74;67.20;97907.97;5006129;28;20048;-63
2023/06/23 09:38:35;;;;;;;14.95;9.88;;;;;;;20.93;67.25;97915.31;4998539;28;20038;-63
2023/06/23 09:41:09;;;;;;;11.07;8.90;;;;;;;20.94;67.83;97908.72;5008968;28;20091;-63
2023/06/23 09:43:43;;;;;;;13.57;9.20;;;;;;;21.22;66.42;97903.16;5008610;28;20046;-63
2023/06/23 09:46:11;;;;;;;13.85;9.38;;;;;;;21.18;67.35;97922.25;5005437;28;20034;-63
2023/06/23 09:48:49;;;;;;;13.45;9.93;;;;;;;20.99;64.37;97922.38;5009054;28;20139;-63
2023/06/23 09:51:20;;;;;;;15.18;9.75;;;;;;;20.77;63.55;97918.38;5006212;28;20038;-64
2023/06/23 09:53:48;;;;;;;10.73;8.30;;;;;;;21.02;63.89;97912.69;5008144;28;20077;-62
2023/06/23 09:56:17;;;;;;;11.70;8.00;;;;;;;21.16;62.04;97918.97;5004272;28;20046;-63
2023/06/23 09:58:45;;;;;;;9.63;7.35;;;;;;;20.97;60.55;97912.78;5001999;28;20070;-64
2023/06/23 10:01:13;;;;;;;8.15;5.93;;;;;;;21.30;61.30;97918.94;5008551;28;20049;-63
2023/06/23 10:03:51;;;;;;;11.63;8.07;;;;;;;21.01;62.28;97909.09;5007912;28;20050;-64
2023/06/23 10:06:22;;;;;;;11.63;7.15;;;;;;;21.35;63.13;97918.03;5006828;28;20120;-64
2023/06/23 10:08:55;;;;;;;8.82;6.72;;;;;;;21.31;62.48;97925.28;5008415;28;20037;-63
2023/06/23 10:11:42;;;;;;;11.93;8.13;;;;;;;21.18;62.81;97916.72;5008597;28;20053;-64
2023/06/23 10:14:11;;;;;;;10.55;7.53;;;;;;;20.83;64.89;97918.28;5007686;28;20068;-63
2023/06/23 10:16:45;;;;;;;9.90;7.68;;;;;;;20.73;65.23;97919.28;5008680;28;20065;-63
2023/06/23 10:19:12;;;;;;;9.40;7.93;;;;;;;20.59;66.14;97925.59;5008411;28;20030;-63
2023/06/23 10:21:41;;;;;;;13.77;8.23;;;;;;;20.82;65.00;97914.69;5008115;28;20133;-63
2023/06/23 10:24:18;;;;;;;10.25;7.82;;;;;;;20.97;64.06;97913.59;5007599;28;20548;-63
2023/06/23 10:26:46;;;;;;;11.18;7.78;;;;;;;21.13;63.19;97914.09;5006810;28;20128;-64
2023/06/23 10:29:14;;;;;;;9.57;7.30;;;;;;;21.27;63.19;97919.56;5008311;28;20699;-64
2023/06/23 10:31:42;;;;;;;12.02;7.32;;;;;;;21.54;63.08;97922.56;5008259;28;20206;-64
2023/06/23 10:34:12;;;;;;;11.48;7.97;;;;;;;21.99;61.96;97902.47;5007644;28;20069;-64
2023/06/23 10:36:41;;;;;;;11.48;7.63;;;;;;;21.90;61.71;97918.16;5003415;28;20761;-64
2023/06/23 10:39:10;;;;;;;9.93;7.85;;;;;;;21.63;63.59;97939.16;5007759;28;20129;-64
2023/06/23 10:41:42;;;;;;;10.68;7.95;;;;;;;21.29;62.50;97922.00;5008035;28;20488;-64
2023/06/23 10:44:09;;;;;;;9.20;6.75;;;;;;;21.57;62.34;97930.22;5004996;28;20038;-64
2023/06/23 10:46:37;;;;;;;10.60;7.47;;;;;;;21.23;63.31;97928.75;5001134;28;20054;-63
2023/06/23 10:49:04;;;;;;;9.75;7.57;;;;;;;21.32;63.03;97929.66;5008024;28;20073;-63
2023/06/23 10:51:32;;;;;;;9.85;7.13;;;;;;;21.40;62.83;97920.66;5003842;28;20069;-63
2023/06/23 10:54:05;;;;;;;9.90;6.65;;;;;;;21.54;60.77;97919.81;5004788;28;20053;-62
2023/06/23 10:56:34;;;;;;;10.80;6.43;;;;;;;21.85;59.45;97918.28;5000478;28;20113;-64
2023/06/23 10:59:19;;;;;;;7.72;5.68;;;;;;;21.57;58.37;97925.50;5007675;28;20117;-64
2023/06/23 11:02:01;;;;;;;7.72;5.93;;;;;;;21.73;59.79;97935.38;5005562;28;20042;-63
2023/06/23 11:04:32;;;;;;;8.38;6.22;;;;;;;21.60;60.62;97926.84;5001006;28;20112;-64
2023/06/23 11:07:07;;;;;;;11.27;7.55;;;;;;;21.62;60.65;97940.28;5004437;28;20563;-64
2023/06/23 11:10:01;;;;;;;8.02;6.03;;;;;;;21.61;59.91;97935.91;5002581;28;20054;-63
2023/06/23 11:12:32;;;;;;;8.15;6.25;;;;;;;21.39;60.49;97943.00;5000222;28;20119;-63
2023/06/23 11:15:08;;;;;;;10.75;6.00;;;;;;;21.84;61.63;97936.75;5001081;28;20404;-62
2023/06/23 11:17:46;;;;;;;7.32;5.38;;;;;;;22.10;56.84;97933.38;5002720;28;20089;-63
2023/06/23 11:20:30;;;;;;;9.95;6.25;;;;;;;21.82;58.03;97939.03;5007278;28;20084;-63
2023/06/23 11:23:07;;;;;;;9.07;6.60;;;;;;;21.28;60.58;97945.16;5005465;28;20042;-64
2023/06/23 11:25:48;;;;;;;11.70;6.35;;;;;;;20.82;62.97;97942.22;5002129;28;20045;-62
2023/06/23 11:28:37;;;;;;;8.93;6.55;;;;;;;20.92;63.47;97946.72;5003690;28;20699;-63
2023/06/23 11:31:13;;;;;;;8.63;6.10;;;;;;;20.95;61.97;97948.88;5004547;28;20536;-63
2023/06/23 11:34:01;;;;;;;9.32;6.30;;;;;;;21.36;63.11;97943.63;5006592;28;20129;-63